Lawton Fort Sill Regional Airport Lawton US
ICAO: KLAW
IATA: LAW
Category: Medium
Scheduled Services: No

Elevation: 1110 ft
TransAlt. 18000 ft.

Airport Communications:
FORT SILL APP/DEP:120.55
ATIS:120.75
CTAF:119.9
GND:121.9
TWR:119.9
UNICOM:122.95

KLAW Zoom In..

If you have problems with the map follow the link
https://www.worldairports.se/pages/airport.php?
ICAO=KLAW

Runways:

(A) RW 17 length 8599 ft width 150 ft
---- / hdg 171

(B) RW 35 length 8599 ft width 150 ft
ILS 109.10 / hdg 351

Location; KLAW
Day. 05 / Time. 22.53 Zulu
* Altimeter: 29.78
* Temperature: 22° c. 71.6°f.
* Wind from: 190° Speed 07 kn.
Dewpoint: 07° c.
Visibility: 10 Statute Miles.
Clouds: Clear (automated report).

KLAW 052253Z 19007KT 10SM CLR 22/07 A2978 RMK AO2 SLP081 T02170072


Wind From 190°
Speed 07 kn.

 
 
jpsmedia worldairports.se 2019   terms of use